Terminal Aerodrome Forecast
Issued by NWS

Home | Current Version | Previous Version | Text Only | Print | Product List | Glossary On
Versions: 1 2 3 4 5 6 7 8 9 10 11 12 13 14 15 16 17 18 19
949
FTUS41 KGYX 261123
TAFRKD
TAF
KRKD 261123Z 2612/2712 27003KT 1/4SM FG OVC002
     FM261300 29007KT P6SM SCT050 SCT080
     FM270000 31003KT P6SM SKC
      AMD LTD TO CLD VIS AND WIND=

USA.gov is the U.S. government's official web portal to all federal, state and local government web resources and services.